Time;durP1;ratioP1;P1;durP2;ratioP2;P2;SDS_P1;SDS_P2;PMS_P1;PMS_P2;Temp;Humidity;BMP_temperature;BMP_pressure;BME280_temperature;BME280_humidity;BME280_pressure;Samples;Min_cycle;Max_cycle;Signal;HPM_P1;HPM_P2
2022/05/09 00:01:29;;;;;;;;;22.75;17.25;;;;;16.66;56.23;102224.09;5035769;28;45576;-69
2022/05/09 00:03:56;;;;;;;;;18.00;17.67;;;;;16.62;55.75;102225.41;5022468;28;45418;-69
2022/05/09 00:06:21;;;;;;;;;19.00;17.67;;;;;16.59;56.09;102229.28;5030789;28;45325;-69
2022/05/09 00:08:47;;;;;;;;;19.00;17.00;;;;;16.44;56.63;102224.47;5027667;28;45414;-69
2022/05/09 00:11:12;;;;;;;;;17.33;16.00;;;;;16.42;56.71;102240.22;5030318;28;45510;-69
2022/05/09 00:13:38;;;;;;;;;18.67;18.00;;;;;16.34;56.94;102239.09;5037635;28;45424;-69
2022/05/09 00:16:04;;;;;;;;;18.33;17.00;;;;;16.32;56.26;102235.63;5029249;28;46240;-69
2022/05/09 00:18:30;;;;;;;;;17.00;14.33;;;;;16.29;57.24;102235.91;5035726;28;45426;-69
2022/05/09 00:20:55;;;;;;;;;18.33;17.67;;;;;16.23;56.43;102231.03;5027040;28;45474;-70
2022/05/09 00:23:21;;;;;;;;;15.00;15.00;;;;;16.18;56.75;102227.00;5039800;28;45387;-69
2022/05/09 00:25:46;;;;;;;;;15.67;14.33;;;;;16.06;57.09;102212.63;5028359;28;46490;-70
2022/05/09 00:28:11;;;;;;;;;15.00;14.67;;;;;16.05;56.66;102227.34;5038102;28;45211;-70
2022/05/09 00:30:37;;;;;;;;;17.67;16.00;;;;;15.96;56.98;102228.22;5026155;28;45387;-70
2022/05/09 00:33:03;;;;;;;;;21.67;16.00;;;;;15.98;56.81;102228.94;5012318;28;45336;-69
2022/05/09 00:35:28;;;;;;;;;14.33;14.33;;;;;15.92;56.83;102224.06;5006176;28;48028;-69
2022/05/09 00:37:53;;;;;;;;;15.33;14.00;;;;;15.87;56.92;102227.22;5032324;28;45402;-69
2022/05/09 00:40:19;;;;;;;;;13.00;13.00;;;;;15.85;56.35;102218.28;5026006;28;45478;-70
2022/05/09 00:42:50;;;;;;;;;14.33;13.33;;;;;15.90;56.65;102224.19;5030313;28;45640;-69
2022/05/09 00:45:18;;;;;;;;;15.67;12.67;;;;;15.84;55.97;102221.19;5025757;28;45431;-70
2022/05/09 00:47:45;;;;;;;;;17.00;14.67;;;;;15.79;55.55;102218.00;5008862;28;45456;-70
2022/05/09 00:50:16;;;;;;;;;14.00;12.67;;;;;15.77;56.01;102222.78;5007116;28;45543;-70
2022/05/09 00:52:58;;;;;;;;;11.67;11.67;;;;;15.85;55.81;102225.66;5032335;28;45339;-70
2022/05/09 00:55:41;;;;;;;;;11.33;11.33;;;;;15.86;55.61;102217.25;5007208;28;48097;-70
2022/05/09 00:58:15;;;;;;;;;14.33;10.33;;;;;15.83;55.39;102219.44;5031709;28;45449;-70
2022/05/09 01:00:44;;;;;;;;;11.00;9.67;;;;;15.80;56.12;102226.06;5024557;28;45426;-70
2022/05/09 01:03:32;;;;;;;;;12.00;10.00;;;;;15.82;55.64;102220.44;5040544;28;45426;-70
2022/05/09 01:05:58;;;;;;;;;16.33;11.00;;;;;15.71;55.37;102212.38;5005717;28;47130;-70
2022/05/09 01:08:25;;;;;;;;;9.33;8.33;;;;;15.70;55.49;102217.03;5023550;28;45683;-70
2022/05/09 01:10:52;;;;;;;;;16.33;12.33;;;;;15.69;55.60;102226.25;5019031;28;45442;-70
2022/05/09 01:13:21;;;;;;;;;16.33;13.67;;;;;15.69;55.27;102219.91;5017420;28;45318;-70
2022/05/09 01:15:52;;;;;;;;;9.67;9.67;;;;;15.67;55.22;102221.91;5028619;28;45283;-70
2022/05/09 01:18:17;;;;;;;;;10.33;10.33;;;;;15.58;54.64;102219.03;5034399;28;45398;-71
2022/05/09 01:20:43;;;;;;;;;9.33;9.33;;;;;15.55;55.08;102219.34;5025792;28;45485;-70
2022/05/09 01:23:10;;;;;;;;;8.67;8.00;;;;;15.57;55.09;102222.78;5012560;28;45576;-70
2022/05/09 01:25:36;;;;;;;;;7.33;7.00;;;;;15.60;54.93;102215.28;5025998;28;45248;-70
2022/05/09 01:28:02;;;;;;;;;9.00;9.00;;;;;15.57;55.04;102220.03;5037996;28;45413;-70
2022/05/09 01:30:43;;;;;;;;;14.33;13.00;;;;;15.50;55.07;102227.06;5025124;28;45414;-70
2022/05/09 01:33:37;;;;;;;;;9.00;9.00;;;;;15.46;55.93;102224.78;5035472;28;45300;-70
2022/05/09 01:36:17;;;;;;;;;10.33;8.00;;;;;15.45;55.58;102226.66;5012285;28;48635;-70
2022/05/09 01:38:54;;;;;;;;;9.33;8.67;;;;;15.40;55.87;102226.22;5030020;28;45321;-69
2022/05/09 01:41:19;;;;;;;;;9.67;8.33;;;;;15.34;56.47;102221.31;5007683;28;45311;-69
2022/05/09 01:43:51;;;;;;;;;8.67;8.00;;;;;15.43;56.24;102219.56;5029542;28;45403;-70
2022/05/09 01:46:20;;;;;;;;;9.00;8.67;;;;;15.44;55.85;102219.44;5007300;28;48140;-70
2022/05/09 01:51:31;;;;;;;;;12.33;8.67;;;;;15.31;56.43;102213.38;5030383;28;45432;-70
2022/05/09 01:53:56;;;;;;;;;9.67;9.67;;;;;15.27;55.76;102214.66;5025815;28;45365;-70
2022/05/09 01:56:29;;;;;;;;;11.00;7.33;;;;;15.15;56.33;102210.34;5028740;28;45351;-70
2022/05/09 01:58:56;;;;;;;;;9.33;7.67;;;;;15.13;56.09;102206.88;5031738;28;45344;-69
2022/05/09 02:01:23;;;;;;;;;11.00;8.00;;;;;15.09;56.26;102209.06;5030916;28;45417;-70
2022/05/09 02:03:49;;;;;;;;;8.00;6.67;;;;;15.11;56.08;102212.53;5040011;28;45248;-70
2022/05/09 02:06:16;;;;;;;;;13.00;9.33;;;;;15.13;56.65;102212.34;5028066;28;46162;-70
2022/05/09 02:08:41;;;;;;;;;13.67;11.33;;;;;15.14;56.12;102219.56;5027239;28;45296;-70
2022/05/09 02:11:07;;;;;;;;;12.00;12.00;;;;;15.11;56.17;102212.53;5027891;28;45390;-70
2022/05/09 02:13:33;;;;;;;;;11.00;9.33;;;;;15.13;55.87;102217.81;5037995;28;45526;-70
2022/05/09 02:15:59;;;;;;;;;12.67;9.00;;;;;15.01;56.48;102211.63;5010074;28;47457;-70
2022/05/09 02:18:25;;;;;;;;;10.00;9.33;;;;;15.01;56.17;102208.03;5036911;28;45354;-70
2022/05/09 02:20:51;;;;;;;;;12.00;8.00;;;;;15.08;56.28;102211.94;5028037;28;45318;-70
2022/05/09 02:23:17;;;;;;;;;18.00;10.00;;;;;15.11;56.17;102209.78;5042388;28;45452;-70
2022/05/09 02:25:44;;;;;;;;;11.00;8.33;;;;;15.09;56.10;102205.44;5027657;28;45323;-70
2022/05/09 02:28:10;;;;;;;;;10.00;6.00;;;;;15.00;56.30;102198.94;5043636;28;45260;-70
2022/05/09 02:30:38;;;;;;;;;9.00;6.67;;;;;14.95;56.56;102211.34;5039694;28;45294;-70
2022/05/09 02:33:04;;;;;;;;;11.67;8.33;;;;;14.98;56.37;102213.78;5038237;28;45477;-69
2022/05/09 02:35:29;;;;;;;;;10.00;10.00;;;;;14.87;57.21;102212.03;5027670;28;45436;-70
2022/05/09 02:37:55;;;;;;;;;8.67;8.67;;;;;14.86;57.02;102210.31;5035799;28;45304;-70
2022/05/09 02:40:24;;;;;;;;;13.00;10.33;;;;;14.90;56.94;102210.91;5010051;28;45472;-70
2022/05/09 02:42:49;;;;;;;;;9.67;6.00;;;;;14.87;56.66;102203.81;5033867;28;45472;-70
2022/05/09 02:45:15;;;;;;;;;12.00;10.67;;;;;14.85;56.75;102208.56;5008675;28;46354;-70
2022/05/09 02:47:41;;;;;;;;;11.00;10.67;;;;;14.77;57.12;102212.00;5040125;28;45212;-70
2022/05/09 02:50:08;;;;;;;;;12.33;10.33;;;;;14.85;57.05;102214.03;5026133;28;45559;-71
2022/05/09 02:52:34;;;;;;;;;8.67;8.67;;;;;14.81;57.26;102207.13;5031617;28;45465;-70
2022/05/09 02:54:59;;;;;;;;;10.00;10.00;;;;;14.71;57.68;102200.75;5025091;28;46295;-70
2022/05/09 02:57:24;;;;;;;;;9.00;8.00;;;;;14.68;57.56;102201.06;5035595;28;45529;-70
2022/05/09 02:59:50;;;;;;;;;12.00;10.33;;;;;14.67;57.68;102208.41;5024999;28;45279;-70
2022/05/09 03:02:15;;;;;;;;;17.67;11.67;;;;;14.66;57.65;102200.31;5037058;28;45366;-70
2022/05/09 03:04:41;;;;;;;;;13.00;11.67;;;;;14.65;58.04;102202.19;5018656;28;47290;-70
2022/05/09 03:07:14;;;;;;;;;13.33;11.33;;;;;14.63;58.04;102197.84;5014782;28;45400;-70
2022/05/09 03:09:42;;;;;;;;;9.00;8.67;;;;;14.64;57.74;102189.50;5005684;28;45303;-70
2022/05/09 03:12:09;;;;;;;;;10.67;10.67;;;;;14.59;57.78;102194.53;5031698;28;45620;-70
2022/05/09 03:14:36;;;;;;;;;16.33;11.33;;;;;14.52;58.29;102196.13;5024692;28;47403;-70
2022/05/09 03:17:02;;;;;;;;;14.00;13.00;;;;;14.42;58.66;102184.25;5012688;28;45458;-70
2022/05/09 03:19:27;;;;;;;;;16.00;14.00;;;;;14.36;59.18;102190.25;5017720;28;45383;-70
2022/05/09 03:21:53;;;;;;;;;13.33;11.33;;;;;14.29;59.26;102194.53;5012533;28;45428;-70
2022/05/09 03:24:22;;;;;;;;;12.33;11.00;;;;;14.33;58.70;102193.25;5035142;28;46335;-70
2022/05/09 03:26:49;;;;;;;;;12.00;12.00;;;;;14.32;59.09;102200.59;5034157;28;45390;-70
2022/05/09 03:29:16;;;;;;;;;11.67;11.67;;;;;14.35;58.83;102194.84;5017214;28;45250;-70
2022/05/09 03:31:41;;;;;;;;;14.67;14.67;;;;;14.33;58.82;102196.84;5032173;28;45404;-70
2022/05/09 03:34:07;;;;;;;;;13.00;11.67;;;;;14.35;58.73;102196.72;5033744;28;45181;-70
2022/05/09 03:36:33;;;;;;;;;15.00;12.33;;;;;14.36;58.10;102190.25;5030211;28;45458;-70
2022/05/09 03:38:58;;;;;;;;;17.67;16.33;;;;;14.29;59.21;102187.22;5032658;28;45359;-70
2022/05/09 03:41:24;;;;;;;;;14.00;12.33;;;;;14.28;59.24;102192.81;5011165;28;45366;-69
2022/05/09 03:43:49;;;;;;;;;14.00;12.67;;;;;14.17;59.15;102180.09;5021758;28;46767;-69
2022/05/09 03:46:15;;;;;;;;;19.33;17.33;;;;;14.08;59.79;102191.00;5035714;28;46372;-69
2022/05/09 03:48:41;;;;;;;;;21.00;18.00;;;;;14.03;60.61;102197.72;5020033;28;45385;-70
2022/05/09 03:51:06;;;;;;;;;15.00;14.67;;;;;13.95;60.68;102189.31;5033226;28;45356;-68
2022/05/09 03:53:32;;;;;;;;;18.00;14.50;;;;;14.00;60.28;102208.94;5021006;28;46087;-70
2022/05/09 03:55:57;;;;;;;;;20.00;17.33;;;;;13.97;60.41;102195.53;5037102;28;45458;-70
2022/05/09 03:58:23;;;;;;;;;50.25;41.50;;;;;13.99;60.15;102201.72;5032006;28;45352;-70
2022/05/09 04:00:49;;;;;;;;;21.67;19.67;;;;;14.01;59.79;102196.13;5028871;28;45533;-70
2022/05/09 04:03:15;;;;;;;;;23.00;20.00;;;;;13.96;60.50;102195.66;5024248;28;47887;-70
2022/05/09 04:05:41;;;;;;;;;16.33;12.67;;;;;14.00;59.81;102195.28;5030184;28;45409;-70
2022/05/09 04:08:09;;;;;;;;;15.00;14.33;;;;;13.94;60.09;102190.34;5014539;28;45213;-70
2022/05/09 04:10:37;;;;;;;;;21.50;20.00;;;;;13.98;60.28;102197.25;5027320;28;45508;-70
2022/05/09 04:13:03;;;;;;;;;17.00;16.00;;;;;13.98;59.94;102191.78;5033424;28;45545;-70
2022/05/09 04:18:17;;;;;;;;;25.33;17.00;;;;;14.00;60.30;102192.53;5034767;28;45276;-70
2022/05/09 04:20:43;;;;;;;;;21.75;20.50;;;;;13.97;59.86;102195.53;5026558;28;45252;-70
2022/05/09 04:23:09;;;;;;;;;20.00;18.67;;;;;13.97;59.72;102206.47;5038890;28;47237;-70
2022/05/09 04:25:35;;;;;;;;;18.33;17.33;;;;;13.93;59.58;102199.53;5026003;28;45304;-70
2022/05/09 04:28:03;;;;;;;;;20.67;16.33;;;;;13.98;59.80;102202.72;5039301;28;45351;-69
2022/05/09 04:30:35;;;;;;;;;15.67;15.67;;;;;14.01;60.03;102202.47;5040533;28;45740;-69
2022/05/09 04:33:01;;;;;;;;;22.33;19.00;;;;;13.97;60.11;102202.84;5034309;28;45476;-69
2022/05/09 04:35:28;;;;;;;;;16.33;16.33;;;;;13.98;59.40;102193.66;5025481;28;45528;-69
2022/05/09 04:37:54;;;;;;;;;18.00;12.00;;;;;14.02;59.52;102195.13;5021732;28;45629;-69
2022/05/09 04:40:29;;;;;;;;;21.00;20.00;;;;;14.00;59.74;102192.53;5008130;28;45279;-69
2022/05/09 04:42:56;;;;;;;;;21.00;17.33;;;;;14.03;59.92;102194.13;5030149;28;45260;-70
2022/05/09 04:45:22;;;;;;;;;21.50;21.25;;;;;13.95;60.05;102191.22;5024113;28;45454;-70
2022/05/09 04:47:50;;;;;;;;;19.33;16.67;;;;;13.86;60.52;102192.88;5028530;28;45277;-70
2022/05/09 04:50:18;;;;;;;;;19.00;14.67;;;;;13.89;60.54;102192.59;5025315;28;45583;-70
2022/05/09 04:52:44;;;;;;;;;15.33;15.33;;;;;13.99;59.92;102198.13;5014320;28;48144;-70
2022/05/09 04:55:12;;;;;;;;;18.33;18.33;;;;;14.11;59.57;102201.63;5005562;28;45566;-70
2022/05/09 04:57:38;;;;;;;;;22.67;18.00;;;;;14.15;59.63;102203.09;5032380;28;45404;-69
2022/05/09 05:00:13;;;;;;;;;20.67;19.00;;;;;14.19;59.55;102204.56;5028200;28;45359;-70
2022/05/09 05:02:39;;;;;;;;;19.00;19.00;;;;;14.17;59.50;102188.28;5036685;28;45362;-70
2022/05/09 05:05:05;;;;;;;;;19.33;15.33;;;;;14.23;59.39;102189.63;5031792;28;45304;-68
2022/05/09 05:07:31;;;;;;;;;18.00;17.67;;;;;14.33;59.44;102193.25;5031908;28;45338;-69
2022/05/09 05:09:57;;;;;;;;;18.33;15.00;;;;;14.38;58.83;102191.88;5023197;28;45456;-69
2022/05/09 05:12:22;;;;;;;;;21.75;18.50;;;;;14.49;59.03;102188.16;5039642;28;45588;-70
2022/05/09 05:14:48;;;;;;;;;20.33;19.00;;;;;15.28;57.45;102194.50;5024507;28;45434;-69
2022/05/09 05:17:14;;;;;;;;;25.75;22.00;;;;;15.05;57.43;102185.69;5029668;28;45953;-69
2022/05/09 05:19:42;;;;;;;;;20.67;15.67;;;;;14.83;57.87;102198.78;5024713;28;45454;-68
2022/05/09 05:22:09;;;;;;;;;25.75;23.00;;;;;14.82;57.90;102194.31;5032519;28;47234;-70
2022/05/09 05:24:36;;;;;;;;;22.75;19.50;;;;;14.73;58.22;102191.41;5036842;28;45420;-70
2022/05/09 05:27:01;;;;;;;;;25.00;22.50;;;;;14.68;58.39;102195.59;5035763;28;45339;-70
2022/05/09 05:29:27;;;;;;;;;22.33;18.00;;;;;14.64;59.40;102203.19;5031729;28;45483;-70
2022/05/09 05:31:53;;;;;;;;;18.33;15.00;;;;;14.72;58.54;102207.97;5028174;28;46345;-70
2022/05/09 05:34:18;;;;;;;;;25.75;23.50;;;;;14.62;58.57;102191.50;5012343;28;45739;-68
2022/05/09 05:36:45;;;;;;;;;24.50;19.75;;;;;14.78;58.62;102205.53;5030836;28;45452;-70
2022/05/09 05:39:15;;;;;;;;;18.00;17.00;;;;;14.99;57.99;102201.81;5029629;28;45513;-69
2022/05/09 05:41:43;;;;;;;;;19.33;16.00;;;;;15.64;55.92;102206.63;5031424;28;45449;-68
2022/05/09 05:44:11;;;;;;;;;21.00;18.33;;;;;16.97;53.16;102203.53;5029695;28;45292;-70
2022/05/09 05:46:39;;;;;;;;;18.33;18.00;;;;;16.80;51.58;102201.66;5032933;28;45363;-68
2022/05/09 05:49:04;;;;;;;;;19.00;17.00;;;;;16.40;52.45;102201.09;5017386;28;45352;-70
2022/05/09 05:51:30;;;;;;;;;17.67;14.67;;;;;16.22;53.60;102196.38;5032482;28;45324;-70
2022/05/09 05:53:58;;;;;;;;;27.25;21.00;;;;;16.12;53.75;102206.53;5028848;28;45259;-69
2022/05/09 05:56:24;;;;;;;;;18.67;17.33;;;;;16.07;54.04;102203.34;5030808;28;45449;-70
2022/05/09 05:58:49;;;;;;;;;18.33;17.00;;;;;15.99;54.03;102206.00;5029632;28;45350;-69
2022/05/09 06:01:14;;;;;;;;;27.67;20.00;;;;;15.97;54.31;102197.06;5011002;28;46594;-69
2022/05/09 06:03:40;;;;;;;;;21.67;17.33;;;;;15.95;54.07;102199.94;5024591;28;45409;-69
2022/05/09 06:06:05;;;;;;;;;18.67;17.67;;;;;16.06;54.16;102207.13;5031763;28;45413;-69
2022/05/09 06:08:30;;;;;;;;;19.00;16.33;;;;;16.13;53.60;102204.66;5024783;28;45177;-69
2022/05/09 06:10:56;;;;;;;;;24.00;22.75;;;;;16.24;53.65;102215.44;5012062;28;46627;-70
2022/05/09 06:13:21;;;;;;;;;23.00;17.00;;;;;16.30;53.58;102215.69;5036015;28;45263;-70
2022/05/09 06:15:47;;;;;;;;;20.00;18.33;;;;;16.35;53.05;102218.00;5026398;28;45317;-68
2022/05/09 06:18:12;;;;;;;;;21.33;18.33;;;;;16.52;53.07;102214.44;5041368;28;45223;-68
2022/05/09 06:20:40;;;;;;;;;24.33;20.33;;;;;16.66;52.38;102215.84;5026153;28;45601;-69
2022/05/09 06:23:06;;;;;;;;;20.00;18.67;;;;;16.91;52.12;102215.16;5037936;28;45441;-68
2022/05/09 06:25:37;;;;;;;;;25.25;17.75;;;;;16.93;51.81;102220.50;5026752;28;45352;-72
2022/05/09 06:28:04;;;;;;;;;20.00;18.00;;;;;16.99;51.79;102218.00;5041240;28;45348;-70
2022/05/09 06:30:31;;;;;;;;;34.75;32.25;;;;;16.87;51.09;102224.72;5026756;28;45490;-70
2022/05/09 06:32:57;;;;;;;;;19.67;17.67;;;;;16.99;51.87;102217.13;5009463;28;45461;-70
2022/05/09 06:35:24;;;;;;;;;18.33;18.00;;;;;16.89;51.20;102217.16;5025713;28;45482;-70
2022/05/09 06:38:02;;;;;;;;;25.67;18.67;;;;;16.77;51.90;102223.91;5012207;28;45488;-70
2022/05/09 06:40:30;;;;;;;;;23.00;20.00;;;;;16.88;51.44;102220.06;5010660;28;46270;-71
2022/05/09 06:42:56;;;;;;;;;21.00;20.00;;;;;17.02;51.09;102223.16;5009372;28;46194;-70
2022/05/09 06:45:23;;;;;;;;;20.67;17.67;;;;;17.15;51.14;102230.16;5025646;28;45440;-70
2022/05/09 06:47:52;;;;;;;;;19.33;16.33;;;;;17.14;50.93;102226.56;5014316;28;45279;-70
2022/05/09 06:50:22;;;;;;;;;23.00;19.33;;;;;17.24;49.92;102237.50;5024724;28;45617;-69
2022/05/09 06:52:47;;;;;;;;;18.00;15.67;;;;;17.22;50.49;102225.78;5031795;28;45430;-70
2022/05/09 06:55:14;;;;;;;;;19.00;18.67;;;;;17.30;50.77;102240.47;5017292;28;45328;-71
2022/05/09 06:57:41;;;;;;;;;19.33;16.67;;;;;17.41;49.94;102242.09;5040099;28;45390;-70
2022/05/09 07:00:10;;;;;;;;;19.00;17.33;;;;;17.59;50.39;102239.38;5031396;28;46112;-70
2022/05/09 07:02:35;;;;;;;;;16.33;16.33;;;;;17.59;49.56;102233.88;5021149;28;45432;-71
2022/05/09 07:05:07;;;;;;;;;18.00;16.33;;;;;17.66;49.07;102233.13;5033541;28;45458;-71
2022/05/09 07:07:33;;;;;;;;;14.75;13.00;;;;;17.49;50.42;102236.69;5032548;28;45269;-70
2022/05/09 07:09:58;;;;;;;;;22.00;20.00;;;;;17.51;50.31;102241.03;5011500;28;45579;-71
2022/05/09 07:12:24;;;;;;;;;21.75;20.25;;;;;17.64;50.38;102239.78;5028189;28;45272;-70
2022/05/09 07:14:49;;;;;;;;;22.00;19.33;;;;;17.78;50.29;102230.97;5023703;28;45468;-70
2022/05/09 07:17:15;;;;;;;;;16.67;15.00;;;;;17.95;49.69;102227.34;5012529;28;45591;-70
2022/05/09 07:19:41;;;;;;;;;20.33;18.00;;;;;17.99;49.47;102234.22;5031846;28;46127;-71
2022/05/09 07:22:06;;;;;;;;;25.33;23.33;;;;;17.82;49.63;102232.38;5013754;28;45659;-70
2022/05/09 07:24:32;;;;;;;;;22.00;20.00;;;;;18.05;49.10;102229.97;5032152;28;45304;-71
2022/05/09 07:26:57;;;;;;;;;22.67;20.33;;;;;18.07;49.07;102226.03;5033921;28;45442;-72
2022/05/09 07:29:22;;;;;;;;;19.67;17.00;;;;;18.06;49.15;102224.31;5031657;28;46202;-69
2022/05/09 07:31:48;;;;;;;;;23.00;21.67;;;;;18.33;48.78;102231.53;5029144;28;45435;-70
2022/05/09 07:34:13;;;;;;;;;23.33;20.00;;;;;18.37;48.24;102230.19;5031415;28;45591;-70
2022/05/09 07:36:39;;;;;;;;;19.00;17.33;;;;;18.50;48.50;102219.56;5010012;28;45413;-70
2022/05/09 07:39:05;;;;;;;;;20.50;17.25;;;;;18.53;48.35;102227.53;5029815;28;46344;-70
2022/05/09 07:41:31;;;;;;;;;25.50;23.25;;;;;18.65;48.49;102222.59;5007281;28;45835;-70
2022/05/09 07:43:57;;;;;;;;;20.67;19.33;;;;;18.75;48.02;102230.75;5021033;28;45226;-70
2022/05/09 07:46:23;;;;;;;;;22.00;20.00;;;;;18.42;48.38;102230.53;5015284;28;45496;-70
2022/05/09 07:48:49;;;;;;;;;18.67;18.00;;;;;18.60;48.33;102230.50;5026536;28;46508;-70
2022/05/09 07:51:15;;;;;;;;;20.00;18.00;;;;;18.85;48.02;102220.47;5030555;28;45404;-70
2022/05/09 07:53:41;;;;;;;;;22.33;20.33;;;;;19.02;47.71;102222.22;5028926;28;45374;-71
2022/05/09 07:56:06;;;;;;;;;24.67;21.67;;;;;19.23;47.36;102211.59;5008861;28;45448;-71
2022/05/09 07:58:32;;;;;;;;;21.67;17.33;;;;;19.37;47.20;102208.16;5033166;28;45335;-70
2022/05/09 08:01:02;;;;;;;;;20.67;19.67;;;;;18.98;47.67;102218.09;5024485;28;45496;-70
2022/05/09 08:03:29;;;;;;;;;21.67;20.33;;;;;19.00;47.89;102197.59;5041550;28;45319;-70
2022/05/09 08:05:56;;;;;;;;;27.00;22.00;;;;;19.25;47.63;102215.06;5031618;28;45449;-68
2022/05/09 08:08:22;;;;;;;;;24.00;22.75;;;;;19.41;46.86;102212.31;5022297;28;45450;-69
2022/05/09 08:10:48;;;;;;;;;18.33;16.00;;;;;19.64;47.65;102200.66;5026662;28;45576;-70
2022/05/09 08:13:16;;;;;;;;;19.33;18.00;;;;;19.87;46.75;102204.41;5033780;28;45347;-70
2022/05/09 08:15:44;;;;;;;;;20.00;18.67;;;;;19.74;46.66;102215.09;5027781;28;45256;-68
2022/05/09 08:18:10;;;;;;;;;20.67;18.00;;;;;20.04;46.74;102213.53;5032478;28;45515;-68
2022/05/09 08:20:37;;;;;;;;;24.00;20.00;;;;;20.24;46.25;102214.03;5025701;28;45322;-68
2022/05/09 08:23:06;;;;;;;;;15.33;15.33;;;;;20.19;45.59;102207.13;5037480;28;45439;-68
2022/05/09 08:25:34;;;;;;;;;19.33;18.00;;;;;20.51;45.38;102200.69;5020787;28;45485;-69
2022/05/09 08:28:01;;;;;;;;;25.00;21.00;;;;;20.76;45.37;102212.47;5039341;28;45519;-70
2022/05/09 08:30:32;;;;;;;;;25.00;22.00;;;;;21.13;43.77;102210.91;5017446;28;45514;-70
2022/05/09 08:32:58;;;;;;;;;22.00;18.67;;;;;21.36;44.05;102211.81;5020278;28;45407;-70
2022/05/09 08:35:23;;;;;;;;;24.50;22.25;;;;;21.41;43.08;102220.41;5025223;28;45332;-70
2022/05/09 08:37:49;;;;;;;;;26.33;24.33;;;;;21.34;42.60;102213.91;5031532;28;46523;-70
2022/05/09 08:40:15;;;;;;;;;22.33;20.00;;;;;21.43;43.80;102210.03;5022748;28;45295;-70
2022/05/09 08:42:49;;;;;;;;;21.00;19.00;;;;;21.73;42.88;102209.09;5030982;28;45423;-70
2022/05/09 08:45:17;;;;;;;;;21.00;18.00;;;;;22.02;42.77;102211.13;5035025;28;45540;-70
2022/05/09 08:48:22;;;;;;;;;24.00;20.00;;;;;22.22;42.18;102213.31;5027950;28;46461;-70
2022/05/09 08:51:09;;;;;;;;;17.00;16.33;;;;;22.35;42.30;102213.56;5006146;28;45424;-70
2022/05/09 08:53:41;;;;;;;;;29.00;25.67;;;;;22.26;41.28;102209.16;5017664;28;45248;-70
2022/05/09 08:56:14;;;;;;;;;27.67;22.67;;;;;22.46;41.51;102210.28;5018029;28;45418;-70
2022/05/09 08:58:51;;;;;;;;;27.75;23.25;;;;;22.43;40.78;102205.97;5028886;28;45400;-70
2022/05/09 09:01:20;;;;;;;;;18.33;17.67;;;;;22.59;42.56;102198.53;5027399;28;45383;-69
2022/05/09 09:04:12;;;;;;;;;28.00;22.00;;;;;22.97;40.46;102191.81;5041564;28;45529;-69
2022/05/09 09:06:47;;;;;;;;;24.67;18.67;;;;;23.36;41.25;102196.09;5029025;28;45541;-69
2022/05/09 09:09:41;;;;;;;;;17.67;14.00;;;;;23.76;40.75;102203.78;5035264;28;46213;-69
2022/05/09 09:12:18;;;;;;;;;22.67;22.00;;;;;23.97;39.70;102195.41;5026791;28;45465;-69
2022/05/09 09:15:25;;;;;;;;;18.00;16.00;;;;;24.29;39.29;102199.53;5022429;28;45398;-69
2022/05/09 09:18:09;;;;;;;;;20.33;20.00;;;;;24.67;38.57;102185.22;4967482;28;45363;-69
2022/05/09 09:21:01;;;;;;;;;13.67;13.67;;;;;24.76;37.76;102176.50;5020097;28;48267;-69
2022/05/09 09:23:57;;;;;;;;;13.00;13.00;;;;;24.91;38.78;102175.50;5033971;28;45410;-69
2022/05/09 09:26:32;;;;;;;;;20.67;20.67;;;;;25.14;37.70;102178.78;5030995;28;45410;-69
2022/05/09 09:29:12;;;;;;;;;24.33;23.00;;;;;25.21;36.88;102174.09;5034885;28;45391;-69
2022/05/09 09:31:49;;;;;;;;;20.33;16.33;;;;;25.46;36.60;102182.69;5030357;28;45335;-69
2022/05/09 09:34:46;;;;;;;;;24.00;18.67;;;;;25.44;35.88;102182.91;5024974;28;45513;-69
2022/05/09 09:37:21;;;;;;;;;22.00;20.00;;;;;25.21;35.65;102177.72;5031044;28;45337;-69
2022/05/09 09:39:46;;;;;;;;;20.00;18.67;;;;;25.52;36.31;102181.84;5028574;28;45412;-69
2022/05/09 09:42:12;;;;;;;;;19.67;19.33;;;;;26.00;36.13;102182.53;5028458;28;45393;-69
2022/05/09 09:44:44;;;;;;;;;19.00;19.00;;;;;25.16;35.90;102191.41;5028416;28;45379;-69
2022/05/09 09:47:12;;;;;;;;;23.33;19.33;;;;;24.79;36.42;102184.41;5036089;28;45319;-70
2022/05/09 09:49:43;;;;;;;;;22.00;20.33;;;;;24.99;37.29;102173.38;5025864;28;45368;-70
2022/05/09 09:52:52;;;;;;;;;26.00;18.67;;;;;25.45;37.06;102184.63;5036442;28;46443;-69
2022/05/09 09:55:36;;;;;;;;;15.33;15.33;;;;;26.20;34.60;102177.78;5026601;28;45399;-70
2022/05/09 09:58:21;;;;;;;;;20.50;20.50;;;;;26.37;34.24;102171.78;5014282;28;45473;-70
2022/05/09 10:01:10;;;;;;;;;18.67;16.33;;;;;26.63;34.19;102160.56;5040978;28;45483;-69
2022/05/09 10:03:40;;;;;;;;;25.00;23.00;;;;;26.23;33.39;102166.19;5019385;28;47438;-70
2022/05/09 10:06:16;;;;;;;;;26.67;20.33;;;;;26.78;34.41;102158.34;5032410;28;45635;-70
2022/05/09 10:08:43;;;;;;;;;25.75;22.50;;;;;26.72;33.83;102153.66;5025399;28;45430;-70
2022/05/09 10:11:29;;;;;;;;;21.00;18.33;;;;;27.17;33.70;102157.31;5038194;28;45513;-69
2022/05/09 10:14:00;;;;;;;;;23.75;19.50;;;;;27.06;33.33;102149.66;5039141;28;45611;-70
2022/05/09 10:16:30;;;;;;;;;23.50;20.25;;;;;26.84;34.00;102151.88;5030905;28;45368;-70
2022/05/09 10:19:00;;;;;;;;;21.33;20.67;;;;;27.15;32.98;102142.72;5038088;28;45299;-69
2022/05/09 10:27:15;;;;;;;;;23.67;19.33;;;;;28.33;31.66;102140.03;5037687;28;45610;-70
2022/05/09 10:29:45;;;;;;;;;23.50;19.00;;;;;28.38;30.86;102149.41;5032455;28;45338;-70
2022/05/09 10:32:13;;;;;;;;;26.75;22.00;;;;;28.41;30.44;102137.78;5013462;28;45354;-70
2022/05/09 10:35:05;;;;;;;;;20.33;17.00;;;;;28.08;30.85;102132.50;5029038;28;45529;-70
2022/05/09 10:37:43;;;;;;;;;18.67;18.33;;;;;28.49;30.13;102137.44;5028185;28;45473;-70
2022/05/09 10:40:16;;;;;;;;;25.75;22.75;;;;;28.12;30.44;102138.50;5025853;28;45513;-70
2022/05/09 10:42:46;;;;;;;;;22.75;17.00;;;;;28.21;29.85;102135.19;5013577;28;45260;-71
2022/05/09 10:45:24;;;;;;;;;17.00;15.67;;;;;28.23;30.98;102137.75;5029507;28;45554;-71
2022/05/09 10:47:55;;;;;;;;;16.33;13.33;;;;;28.71;28.88;102125.81;5022745;28;45727;-71
2022/05/09 10:50:42;;;;;;;;;19.33;18.00;;;;;29.04;29.49;102131.81;5026147;28;45528;-71
2022/05/09 10:53:16;;;;;;;;;22.75;20.50;;;;;28.64;29.14;102120.25;5022663;28;45429;-71
2022/05/09 10:55:57;;;;;;;;;21.33;15.33;;;;;28.58;30.29;102121.22;5039871;28;45511;-71
2022/05/09 10:58:33;;;;;;;;;25.25;22.75;;;;;29.04;28.85;102115.03;5023864;28;45197;-71
2022/05/09 11:01:07;;;;;;;;;24.25;20.25;;;;;28.67;29.71;102115.06;5036921;28;45291;-70
2022/05/09 11:03:37;;;;;;;;;19.75;18.25;;;;;28.48;29.78;102115.34;5035779;28;45551;-71
2022/05/09 11:06:16;;;;;;;;;19.00;18.33;;;;;29.20;29.25;102119.94;5031376;28;45406;-72
2022/05/09 11:08:57;;;;;;;;;17.33;16.67;;;;;29.11;28.61;102120.50;5037404;28;45290;-70
2022/05/09 11:12:01;;;;;;;;;23.00;19.00;;;;;29.29;27.92;102114.88;5027936;28;45566;-68
2022/05/09 11:14:49;;;;;;;;;21.67;19.00;;;;;29.39;27.62;102117.94;5028897;28;45367;-68
2022/05/09 11:17:56;;;;;;;;;17.00;17.00;;;;;29.31;27.24;102124.72;5041473;28;46284;-69
2022/05/09 11:20:22;;;;;;;;;20.67;19.00;;;;;29.90;27.02;102108.00;5038865;28;45292;-69
2022/05/09 11:23:21;;;;;;;;;20.00;18.67;;;;;29.20;28.09;102119.94;5041628;28;45246;-70
2022/05/09 11:26:03;;;;;;;;;16.33;14.00;;;;;29.37;26.59;102114.53;5039089;28;45389;-70
2022/05/09 11:28:54;;;;;;;;;16.67;16.67;;;;;29.42;27.26;102109.94;5037878;28;46957;-72
2022/05/09 11:31:31;;;;;;;;;15.00;14.67;;;;;29.69;27.36;102107.53;5028413;28;45310;-70
2022/05/09 11:34:05;;;;;;;;;17.50;15.00;;;;;29.60;27.53;102099.72;5030959;28;45301;-69
2022/05/09 11:36:52;;;;;;;;;17.50;17.50;;;;;30.02;27.26;102104.16;5030283;28;45442;-72